createdAt,value
2019-06-20T00:09:54.630Z,17.57
2019-06-20T00:19:56.083Z,16.77
2019-06-20T00:29:57.726Z,16.17
2019-06-20T00:39:59.165Z,16.93
2019-06-20T00:50:00.767Z,17.27
2019-06-20T01:00:05.195Z,17.87
2019-06-20T01:10:08.311Z,16.70
2019-06-20T01:20:09.838Z,16.20
2019-06-20T01:30:11.665Z,17.10
2019-06-20T01:40:12.986Z,17.13
2019-06-20T01:50:14.368Z,16.43
2019-06-20T02:00:31.474Z,17.23
2019-06-20T02:10:32.949Z,16.63
2019-06-20T02:20:45.191Z,17.37
2019-06-20T02:30:46.789Z,16.57
2019-06-20T02:40:48.247Z,18.17
2019-06-20T02:50:49.627Z,17.67
2019-06-20T03:00:55.432Z,17.70
2019-06-20T03:10:56.644Z,17.00
2019-06-20T03:20:57.969Z,17.40
2019-06-20T03:30:59.469Z,16.77
2019-06-20T03:41:00.995Z,17.27
2019-06-20T03:51:02.580Z,16.17
2019-06-20T04:01:04.013Z,16.50
2019-06-20T04:11:05.309Z,15.47
2019-06-20T04:21:06.556Z,14.70
2019-06-20T04:31:08.049Z,13.17
2019-06-20T04:41:09.585Z,12.70
2019-06-20T04:51:11.020Z,13.00
2019-06-20T05:01:12.339Z,12.10
2019-06-20T05:11:13.766Z,11.00
2019-06-20T05:21:15.270Z,9.43
2019-06-20T05:31:16.573Z,8.40
2019-06-20T05:41:17.881Z,8.48
2019-06-20T05:51:19.350Z,9.18
2019-06-20T06:01:20.680Z,9.75
2019-06-20T06:11:21.999Z,9.93
2019-06-20T06:21:23.266Z,9.87
2019-06-20T06:31:24.550Z,9.93
2019-06-20T06:41:26.649Z,10.33
2019-06-20T07:01:29.987Z,9.10
2019-06-20T07:11:31.312Z,9.70
2019-06-20T07:21:32.523Z,8.90
2019-06-20T07:31:33.914Z,9.23
2019-06-20T07:41:35.576Z,9.40
2019-06-20T07:51:36.799Z,9.30
2019-06-20T08:01:38.357Z,9.90
2019-06-20T08:11:39.817Z,9.70
2019-06-20T08:21:44.062Z,9.40
2019-06-20T08:31:44.485Z,9.03
2019-06-20T08:41:46.067Z,9.10
2019-06-20T08:51:47.684Z,8.43
2019-06-20T09:01:49.320Z,8.23
2019-06-20T09:11:51.008Z,8.27
2019-06-20T09:21:53.922Z,7.80
2019-06-20T09:31:55.724Z,7.97
2019-06-20T09:41:57.042Z,7.63
2019-06-20T09:51:58.734Z,8.30
2019-06-20T10:02:00.681Z,8.67
2019-06-20T10:22:03.357Z,9.97
2019-06-20T10:42:06.373Z,11.10
2019-06-20T10:52:10.621Z,8.23
2019-06-20T11:02:11.947Z,9.37
2019-06-20T11:12:13.648Z,7.27
2019-06-20T11:22:15.636Z,6.80
2019-06-20T11:32:17.196Z,6.50
2019-06-20T11:42:18.613Z,6.07
2019-06-20T11:52:19.944Z,5.53
2019-06-20T12:02:21.290Z,5.40
2019-06-20T12:12:22.657Z,4.90
2019-06-20T12:22:24.118Z,4.53
2019-06-20T12:32:25.645Z,5.12
2019-06-20T12:42:27.280Z,5.43
2019-06-20T12:52:28.639Z,5.17
2019-06-20T13:02:31.799Z,5.72
2019-06-20T13:12:33.204Z,5.20
2019-06-20T13:22:34.568Z,4.60
2019-06-20T13:32:35.959Z,6.50
2019-06-20T13:42:39.067Z,5.70
2019-06-20T13:52:43.505Z,6.10
2019-06-20T14:02:46.487Z,5.57
2019-06-20T14:12:48.757Z,5.67
2019-06-20T14:22:50.233Z,6.43
2019-06-20T14:32:51.614Z,7.30
2019-06-20T14:42:54.253Z,5.93
2019-06-20T14:52:55.697Z,5.97
2019-06-20T15:02:58.685Z,5.00
2019-06-20T15:13:00.062Z,5.20
2019-06-20T15:23:01.356Z,5.07
2019-06-20T15:33:09.887Z,5.07
2019-06-20T15:43:05.731Z,5.20
2019-06-20T15:53:07.521Z,4.37
2019-06-20T16:03:11.278Z,4.90
2019-06-20T16:13:11.938Z,3.60
2019-06-20T16:23:13.183Z,3.23
2019-06-20T16:33:24.630Z,3.53
2019-06-20T16:43:17.671Z,3.10
2019-06-20T16:53:18.862Z,4.40
2019-06-20T17:03:20.114Z,4.23
2019-06-20T17:13:21.285Z,4.03
2019-06-20T17:23:22.692Z,4.17
2019-06-20T17:33:24.070Z,3.87
2019-06-20T17:43:25.686Z,4.33
2019-06-20T17:53:26.986Z,4.40
2019-06-20T18:03:28.338Z,4.28
2019-06-20T18:13:29.573Z,4.40
2019-06-20T18:23:32.250Z,5.40
2019-06-20T18:33:33.533Z,5.60
2019-06-20T18:43:34.832Z,7.17
2019-06-20T18:53:36.034Z,9.53
2019-06-20T19:03:37.593Z,5.58
2019-06-20T19:13:38.873Z,6.78
2019-06-20T19:23:41.795Z,6.15
2019-06-20T19:33:43.129Z,5.93
2019-06-20T19:43:44.427Z,4.30
2019-06-20T19:53:46.110Z,3.40
2019-06-20T20:03:47.489Z,3.37
2019-06-20T20:13:48.712Z,2.67
2019-06-20T20:23:49.987Z,3.40
2019-06-20T20:33:51.255Z,2.90
2019-06-20T20:43:52.608Z,3.33
2019-06-20T20:53:53.930Z,3.47
2019-06-20T21:03:55.377Z,3.77
2019-06-20T21:13:56.652Z,4.13
2019-06-20T21:23:57.984Z,3.20
2019-06-20T21:33:59.361Z,3.30
2019-06-20T21:44:00.596Z,3.60
2019-06-20T21:54:01.928Z,4.30
2019-06-20T22:04:03.934Z,3.87
2019-06-20T22:14:05.136Z,4.00
2019-06-20T22:24:06.531Z,3.83
2019-06-20T22:34:07.873Z,4.10
2019-06-20T22:44:09.234Z,4.87
2019-06-20T22:54:10.512Z,5.37
2019-06-20T23:04:11.704Z,5.10
2019-06-20T23:14:13.283Z,5.50
2019-06-20T23:24:14.590Z,5.33
2019-06-20T23:34:15.885Z,6.23
2019-06-20T23:44:17.213Z,5.73
2019-06-20T23:54:18.481Z,6.00
